TFM - Tactical Decision Aid
ID: Runway Winds: CIG/VIS Threshold:

KPHX - Phoenix/Sky Harbor, AZ, US

Updated at: 0111 UTC 12 May 2021
Latest TAF at: 2320 UTC 11 May 2021

TAF Board

Time0051Z 12/02Z 12/03Z 12/04Z 12/05Z 12/06Z 12/07Z 12/08Z 12/09Z 12/10Z 12/11Z 12/12Z 12/13Z 12/14Z>>
Type OBS PRVL PRVL PRVL PRVL PRVL PRVL PRVL PRVL PRVL PRVL PRVL PRVL PRVL
VIS 10 >6 >6 >6 >6 >6 >6 >6 >6 >6 >6 >6 >6 >6
CIG -- -- -- -- -- -- -- -- -- -- -- -- -- --
Cover CLR SKC SKC SKC SKC SKC SKC SKC SKC SKC SKC SKC SKC SKC
FltCat VFR VFR VFR VFR VFR VFR VFR VFR VFR VFR VFR VFR VFR VFR
WX -- -- -- -- -- -- -- -- -- -- -- -- -- --
WDir 250 250 250 250 250 250 250 250 100 100 100 100 100 100
WSpd 6 8 8 8 8 8 8 8 5 5 5 5 5 5
WGst -- -- -- -- -- -- -- -- -- -- -- -- -- --

TDA Impact Legend

  None Marginal Slight Moderate High
Visibility (sm) >5 3≤X≤5 1.25≤X<3 0.5≤X<1.25 <0.5
Ceiling (100 ft) >30 10≤X≤30 4≤X<10 2≤X<4 <2
Wind Speed (kt) <15 15≤X<25 25≤X<30 ≥30
Wind Gust (kt) <15 15≤X<25 25≤X<35 ≥35
Weather No Wx Reported VCTS -TS,-FZRA TS,FZRA +TS,+FZRA
TAF
KPHX 112320Z 1200/1306 25008KT P6SM SKC
  FM120900 10005KT P6SM SKC
  FM121700 17005KT P6SM SKC
  FM122000 25006KT P6SM SKC


METAR
KPHX 120051Z 25006KT 10SM CLR 34/M12 A2978 RMK AO2 SLP065 T03391122
KPHX 112351Z 00000KT 10SM CLR 34/M13 A2978 RMK AO2 SLP065 T03391128 10350 20294 56016
KPHX 112251Z 16009KT 10SM CLR 34/M12 A2979 RMK AO2 SLP067 T03441117
KPHX 112151Z VRB03KT 10SM CLR 33/M12 A2980 RMK AO2 SLP074 T03331117

Radar Display
Forecast Discussion